02:45 MTB Tschirgantrunde gross - retour über Moritzen zum Badesee
Ort Moetz Datum 10.07.2016 11:49:00
Kategorie MTB
Distanz 65,21 Kilometer Steigung 946,0 Meter Gefälle -794,0 Meter
Gesamt Zeit 02:45:28 Aktiv 02:45:08 Pause 00:00:20
Durchs. Tempo 23,7 km/h Tempo max. 59,9 km/h Tempo min. 6,6 km/h
Kalorien 0 Durchs. HF 133 BPM HF max. 165 BPM
Wetter 28 °C Clear Min/Max: 26,9 °C/30,7 °C; Druck: 1014,8 mbar; Rel. Feuchte: 45,2%; Taupunkt: 16,2 °C; Niederschlag: 0,0mm
Ausrüstung Bontrager - Race X Lite MTB
Schwalbe - Nobby Nic vorne
Schwalbe - Racing Ralph hinten
Shimano - HG-XTR 7701
Specialized - Stumpjumper Comp
Notiz Tschirgantrunde gross: Moetz - Radlweg - Imst - Dormitz - Arzkasten - Wildermieming - Telfs - Moritzen - Fiecht - Badesee Mieming ... trocken, heiss, locker bis flott ... garmin connect
Splits
Distanz (km) Gesamt Zeit Split Zeit Split Tempo Split Tempo Höhenprofil (m)
1,00 00:02:23 00:02:23 00:02:24 25,0 -1,35
2,00 00:04:29 00:02:05 00:02:05 28,7 3,12
3,00 00:06:30 00:02:00 00:02:01 29,8 6,15
4,00 00:08:21 00:01:50 00:01:51 32,4 0,08
5,00 00:10:15 00:01:54 00:01:54 31,5 -1,44
6,00 00:12:08 00:01:53 00:01:53 31,7 3,24
7,00 00:14:08 00:01:59 00:02:00 30,1 11,16
8,00 00:17:25 00:03:16 00:03:17 18,3 44,49
9,00 00:19:38 00:02:13 00:02:14 26,9 -4,25
10,00 00:21:18 00:01:39 00:01:40 36,1 -15,66
11,00 00:23:01 00:01:42 00:01:43 35,0 -16,58
12,00 00:25:36 00:02:34 00:02:35 23,3 21,39
13,00 00:27:57 00:02:21 00:02:22 25,4 -3,75
14,00 00:30:56 00:02:58 00:02:59 20,1 19,75
15,00 00:32:49 00:01:52 00:01:53 31,9 -14,96
16,00 00:35:05 00:02:15 00:02:16 26,5 7,72
17,00 00:37:19 00:02:13 00:02:14 26,9 -1,13
18,00 00:39:24 00:02:05 00:02:06 28,7 4,98
19,00 00:42:03 00:02:39 00:02:39 22,6 -3,55
20,00 00:44:05 00:02:01 00:02:01 29,6 -0,79
21,00 00:46:11 00:02:06 00:02:07 28,4 7,14
22,00 00:48:24 00:02:12 00:02:13 27,1 11,32
23,00 00:50:56 00:02:31 00:02:32 23,8 18,85
24,00 00:53:14 00:02:18 00:02:18 26,0 6,11
25,00 00:55:37 00:02:23 00:02:23 25,1 16,14
26,00 00:58:18 00:02:40 00:02:40 22,4 9,45
27,00 01:01:06 00:02:48 00:02:48 21,4 20,27
28,00 01:03:38 00:02:32 00:02:32 23,7 6,36
29,00 01:06:15 00:02:37 00:02:37 22,9 17,40
30,00 01:08:25 00:02:09 00:02:09 27,8 -3,51
31,00 01:10:48 00:02:23 00:02:24 25,0 13,51
32,00 01:12:47 00:01:58 00:01:59 30,4 -17,04
33,00 01:15:01 00:02:13 00:02:14 26,9 -1,09
34,00 01:16:58 00:01:57 00:01:58 30,5 1,45
35,00 01:20:09 00:03:10 00:03:11 18,9 25,11
36,00 01:23:05 00:02:56 00:02:56 20,4 30,72
37,00 01:26:48 00:03:42 00:03:43 16,2 44,64
38,00 01:31:17 00:04:29 00:04:30 13,4 54,78
39,00 01:38:45 00:07:27 00:07:27 8,0 129,39
40,00 01:43:12 00:04:27 00:04:28 13,5 45,77
41,00 01:45:43 00:02:30 00:02:31 23,8 -4,67
42,00 01:47:28 00:01:44 00:01:45 34,4 -53,81
43,00 01:48:58 00:01:29 00:01:30 40,1 -66,54
44,00 01:50:37 00:01:38 00:01:39 36,4 -30,53
45,00 01:52:39 00:02:02 00:02:02 29,5 -42,92
46,00 01:55:33 00:02:54 00:02:55 20,6 -11,20
47,00 01:57:16 00:01:42 00:01:42 35,1 -32,76
48,00 01:59:32 00:02:16 00:02:16 26,5 -0,59
49,00 02:01:49 00:02:16 00:02:17 26,4 -16,88
50,00 02:04:01 00:02:12 00:02:13 27,1 1,74
51,00 02:06:12 00:02:10 00:02:10 27,6 5,87
52,00 02:08:09 00:01:56 00:01:57 30,8 -22,96
53,00 02:10:04 00:01:55 00:01:55 31,2 -22,62
54,00 02:11:56 00:01:52 00:01:52 32,1 -14,03
55,00 02:13:39 00:01:42 00:01:43 35,0 -27,42
56,00 02:15:27 00:01:47 00:01:48 33,3 -81,12
57,00 02:17:30 00:02:02 00:02:03 29,4 -64,23
58,00 02:23:21 00:05:51 00:05:51 10,3 76,71
59,00 02:26:57 00:03:36 00:03:37 16,6 30,74
60,00 02:31:39 00:04:41 00:04:41 12,8 48,73
61,00 02:35:14 00:03:34 00:03:35 16,8 0,29
62,00 02:38:33 00:03:19 00:03:19 18,1 26,49
63,00 02:40:52 00:02:19 00:02:20 25,7 -7,74
64,00 02:42:12 00:01:19 00:01:19 45,4 -41,67
65,00 02:44:41 00:02:29 00:02:30 24,1 4,22
65,17 02:45:08 00:00:26 00:02:31 23,8 -1,39